Time;durP1;ratioP1;P1;durP2;ratioP2;P2;SDS_P1;SDS_P2;PMS_P1;PMS_P2;Temp;Humidity;BMP_temperature;BMP_pressure;BME280_temperature;BME280_humidity;BME280_pressure;Samples;Min_cycle;Max_cycle;Signal;HPM_P1;HPM_P2
2020/12/11 00:00:12;;;;;;;18.27;10.02;;;-3.60;99.90;;;;;;2090084;28;20288;-60
2020/12/11 00:01:20;;;;;;;15.27;9.17;;;-3.70;99.90;;;;;;2089940;28;20196;-61
2020/12/11 00:02:20;;;;;;;17.23;9.60;;;-3.70;99.90;;;;;;2092010;28;20199;-60
2020/12/11 00:03:21;;;;;;;16.93;9.23;;;-3.70;99.90;;;;;;2089854;28;20263;-60
2020/12/11 00:04:22;;;;;;;18.30;9.67;;;-3.70;99.90;;;;;;2090053;28;20204;-62
2020/12/11 00:05:22;;;;;;;16.83;9.63;;;-3.80;99.90;;;;;;2090088;28;20195;-60
2020/12/11 00:06:23;;;;;;;19.07;10.47;;;-3.70;99.90;;;;;;2089968;28;20177;-60
2020/12/11 00:07:24;;;;;;;16.95;9.35;;;-3.70;99.90;;;;;;2089963;28;20257;-60
2020/12/11 00:08:25;;;;;;;15.97;8.50;;;-3.80;99.90;;;;;;2089965;28;20266;-60
2020/12/11 00:09:27;;;;;;;16.03;8.73;;;-3.80;99.90;;;;;;2090360;28;20187;-62
2020/12/11 00:10:28;;;;;;;16.20;9.60;;;-3.80;99.90;;;;;;2090220;28;20207;-61
2020/12/11 00:11:30;;;;;;;15.77;8.90;;;-3.90;99.90;;;;;;2090081;28;20644;-61
2020/12/11 00:12:31;;;;;;;19.52;10.63;;;-3.90;99.90;;;;;;2090170;28;20582;-62
2020/12/11 00:13:32;;;;;;;15.43;8.55;;;-3.90;99.90;;;;;;2090226;28;20275;-59
2020/12/11 00:14:33;;;;;;;16.20;8.90;;;-3.90;99.90;;;;;;2090282;28;20185;-62
2020/12/11 00:15:33;;;;;;;14.70;9.00;;;-3.90;99.90;;;;;;2090467;28;20548;-62
2020/12/11 00:16:35;;;;;;;14.23;9.00;;;-3.90;99.90;;;;;;2090367;28;20265;-61
2020/12/11 00:17:37;;;;;;;15.45;8.38;;;-3.90;99.90;;;;;;2090447;28;20176;-60
2020/12/11 00:18:37;;;;;;;15.13;7.78;;;-3.90;99.90;;;;;;2090056;28;20180;-61
2020/12/11 00:19:38;;;;;;;14.93;8.50;;;-3.80;99.90;;;;;;2089720;28;20181;-61
2020/12/11 00:20:39;;;;;;;17.17;8.97;;;-3.80;99.90;;;;;;2089861;28;20173;-61
2020/12/11 00:21:41;;;;;;;17.00;8.87;;;-3.80;99.90;;;;;;2089777;28;20169;-60
2020/12/11 00:22:42;;;;;;;15.00;9.02;;;-3.70;99.90;;;;;;2089852;28;20189;-59
2020/12/11 00:23:43;;;;;;;15.33;9.00;;;-3.70;99.90;;;;;;2089932;28;20314;-61
2020/12/11 00:24:43;;;;;;;17.10;9.80;;;-3.70;99.90;;;;;;2089879;28;20168;-61
2020/12/11 00:25:44;;;;;;;18.57;9.53;;;-3.60;99.90;;;;;;2090022;28;20180;-59
2020/12/11 00:26:46;;;;;;;16.10;8.33;;;-3.60;99.90;;;;;;2089934;28;20705;-61
2020/12/11 00:27:46;;;;;;;19.35;9.27;;;-3.60;99.90;;;;;;2090016;28;20177;-60
2020/12/11 00:28:47;;;;;;;15.60;8.87;;;-3.60;99.90;;;;;;2089945;28;20214;-61
2020/12/11 00:29:48;;;;;;;14.20;8.73;;;-3.60;99.90;;;;;;2090017;28;20200;-60
2020/12/11 00:30:49;;;;;;;19.07;10.37;;;-3.60;99.90;;;;;;2089618;28;20826;-62
2020/12/11 00:31:49;;;;;;;16.90;9.23;;;-3.60;99.90;;;;;;2089822;28;20203;-61
2020/12/11 00:32:50;;;;;;;17.37;8.83;;;-3.60;99.90;;;;;;2089754;28;20695;-60
2020/12/11 00:33:54;;;;;;;17.10;10.10;;;-3.60;99.90;;;;;;2113654;22;20195;-74
2020/12/11 00:34:55;;;;;;;18.55;10.07;;;-3.70;99.90;;;;;;2062595;28;20218;-69
2020/12/11 00:35:56;;;;;;;17.73;9.27;;;-3.70;99.90;;;;;;2056453;28;20179;-68
2020/12/11 00:36:57;;;;;;;20.70;11.80;;;-3.70;99.90;;;;;;2064777;28;20179;-68
2020/12/11 00:37:58;;;;;;;20.23;10.60;;;-3.70;99.90;;;;;;2073207;28;20178;-68
2020/12/11 00:38:58;;;;;;;17.43;9.60;;;-3.80;99.90;;;;;;2073250;28;20185;-68
2020/12/11 00:39:59;;;;;;;18.47;10.23;;;-3.80;99.90;;;;;;2073111;28;20284;-70
2020/12/11 00:41:02;;;;;;;20.03;10.50;;;-3.80;99.90;;;;;;2072670;28;20562;-69
2020/12/11 00:42:03;;;;;;;21.55;10.25;;;-3.80;99.90;;;;;;2073377;28;20181;-70
2020/12/11 00:43:04;;;;;;;17.17;9.80;;;-3.80;99.90;;;;;;2072703;28;20272;-70
2020/12/11 00:44:04;;;;;;;19.80;11.00;;;-3.80;99.90;;;;;;2072759;28;20307;-69
2020/12/11 00:45:05;;;;;;;22.13;10.83;;;-3.80;99.90;;;;;;2073235;28;20504;-69
2020/12/11 00:46:06;;;;;;;19.20;10.23;;;-3.80;99.90;;;;;;2073568;28;20240;-69
2020/12/11 00:47:07;;;;;;;19.50;11.17;;;-3.90;99.90;;;;;;2073074;28;20184;-68
2020/12/11 00:48:07;;;;;;;21.50;10.63;;;-3.80;99.90;;;;;;2073426;28;20421;-72
2020/12/11 00:49:08;;;;;;;17.37;9.33;;;-3.80;99.90;;;;;;2064697;28;20257;-69
2020/12/11 00:50:09;;;;;;;19.83;10.77;;;-3.80;99.90;;;;;;2064609;28;20182;-69
2020/12/11 00:51:10;;;;;;;19.60;10.90;;;-3.80;99.90;;;;;;2073042;28;20206;-69
2020/12/11 00:52:10;;;;;;;20.30;11.00;;;-3.80;99.90;;;;;;2073442;28;20185;-69
2020/12/11 00:53:11;;;;;;;18.37;9.77;;;-3.80;99.90;;;;;;2073272;28;20184;-70
2020/12/11 00:54:12;;;;;;;20.73;9.90;;;-3.70;99.90;;;;;;2073174;28;20201;-69
2020/12/11 00:55:12;;;;;;;20.57;11.17;;;-3.80;99.90;;;;;;2072941;28;20212;-70
2020/12/11 00:56:14;;;;;;;20.77;10.27;;;-3.70;99.90;;;;;;2064713;28;20269;-69
2020/12/11 00:57:15;;;;;;;22.33;11.15;;;-3.70;99.90;;;;;;2064493;28;20225;-68
2020/12/11 00:58:15;;;;;;;22.17;11.43;;;-3.70;99.90;;;;;;2073300;28;20193;-69
2020/12/11 00:59:16;;;;;;;21.37;11.47;;;-3.70;99.90;;;;;;2064299;28;20190;-69
2020/12/11 01:00:18;;;;;;;20.60;11.17;;;-3.70;99.90;;;;;;2064605;28;20202;-69
2020/12/11 01:01:18;;;;;;;20.58;10.95;;;-3.70;99.90;;;;;;2072810;28;20259;-69
2020/12/11 01:02:19;;;;;;;21.67;12.00;;;-3.70;99.90;;;;;;2073230;28;20267;-71
2020/12/11 01:03:20;;;;;;;21.00;10.83;;;-3.70;99.90;;;;;;2073030;28;20186;-69
2020/12/11 01:04:20;;;;;;;22.73;10.80;;;-3.70;99.90;;;;;;2073147;28;20208;-69
2020/12/11 01:05:21;;;;;;;20.47;10.63;;;-3.60;99.90;;;;;;2073146;28;20182;-69
2020/12/11 01:06:22;;;;;;;24.60;10.97;;;-3.60;99.90;;;;;;2073198;28;20200;-68
2020/12/11 01:07:22;;;;;;;23.17;11.50;;;-3.60;99.90;;;;;;2072970;28;20232;-69
2020/12/11 01:08:23;;;;;;;21.67;11.17;;;-3.60;99.90;;;;;;2073075;28;20240;-69
2020/12/11 01:09:24;;;;;;;20.17;10.40;;;-3.60;99.90;;;;;;2073163;28;20189;-69
2020/12/11 01:10:24;;;;;;;22.57;11.03;;;-3.60;99.90;;;;;;2073123;28;20217;-69
2020/12/11 01:11:25;;;;;;;19.87;9.87;;;-3.60;99.90;;;;;;2064118;28;20603;-69
2020/12/11 01:12:26;;;;;;;20.30;10.63;;;-3.60;99.90;;;;;;2064267;28;20237;-69
2020/12/11 01:13:27;;;;;;;20.38;11.45;;;-3.60;99.90;;;;;;2064078;28;20518;-69
2020/12/11 01:14:28;;;;;;;21.30;11.00;;;-3.60;99.90;;;;;;2064374;28;20210;-69
2020/12/11 01:15:29;;;;;;;23.53;12.23;;;-3.60;99.90;;;;;;2073061;28;20423;-69
2020/12/11 01:16:29;;;;;;;20.70;9.53;;;-3.60;99.90;;;;;;2073178;28;20196;-69
2020/12/11 01:17:30;;;;;;;21.43;10.97;;;-3.60;99.90;;;;;;2073121;28;20182;-69
2020/12/11 01:18:31;;;;;;;20.57;10.67;;;-3.60;99.90;;;;;;2072888;28;20212;-69
2020/12/11 01:19:31;;;;;;;19.30;10.23;;;-3.70;99.90;;;;;;2072886;28;20341;-70
2020/12/11 01:20:32;;;;;;;21.27;11.50;;;-3.60;99.90;;;;;;2072918;28;20216;-69
2020/12/11 01:21:32;;;;;;;19.93;10.37;;;-3.60;99.90;;;;;;2072695;28;20711;-70
2020/12/11 01:22:33;;;;;;;20.87;10.17;;;-3.70;99.90;;;;;;2072869;28;20197;-69
2020/12/11 01:23:34;;;;;;;20.60;10.83;;;-3.60;99.90;;;;;;2073124;28;20651;-70
2020/12/11 01:24:34;;;;;;;20.27;11.50;;;-3.60;99.90;;;;;;2063881;28;20313;-71
2020/12/11 01:25:35;;;;;;;20.67;11.07;;;-3.60;99.90;;;;;;2064340;28;20217;-69
2020/12/11 01:26:36;;;;;;;22.13;11.17;;;-3.60;99.90;;;;;;2072958;28;20204;-69
2020/12/11 01:27:37;;;;;;;20.10;11.10;;;-3.60;99.90;;;;;;2073025;28;20236;-69
2020/12/11 01:28:37;;;;;;;20.93;10.47;;;-3.60;99.90;;;;;;2064089;28;20557;-70
2020/12/11 01:29:38;;;;;;;23.33;10.70;;;-3.60;99.90;;;;;;2064145;28;20174;-68
2020/12/11 01:30:39;;;;;;;19.27;10.30;;;-3.60;99.90;;;;;;2072785;28;20229;-70
2020/12/11 01:31:39;;;;;;;18.40;10.10;;;-3.60;99.90;;;;;;2072687;28;20220;-70
2020/12/11 01:32:40;;;;;;;20.20;10.33;;;-3.60;99.90;;;;;;2072909;28;20178;-68
2020/12/11 01:33:46;;;;;;;17.23;9.83;;;-3.60;99.90;;;;;;2072802;28;20628;-69
2020/12/11 01:34:46;;;;;;;23.98;10.93;;;-3.60;99.90;;;;;;2072872;28;20273;-68
2020/12/11 01:35:47;;;;;;;21.30;11.13;;;-3.60;99.90;;;;;;2072826;28;20178;-69
2020/12/11 01:36:48;;;;;;;19.37;10.20;;;-3.60;99.90;;;;;;2072913;28;20609;-70
2020/12/11 01:37:48;;;;;;;21.13;10.87;;;-3.50;99.90;;;;;;2073058;28;20182;-68
2020/12/11 01:38:49;;;;;;;19.07;10.53;;;-3.60;99.90;;;;;;2072963;28;20780;-70
2020/12/11 01:39:50;;;;;;;18.03;10.43;;;-3.50;99.90;;;;;;2072971;28;20177;-70
2020/12/11 01:40:50;;;;;;;19.87;10.03;;;-3.50;99.90;;;;;;2072690;28;20271;-69
2020/12/11 01:41:51;;;;;;;19.30;10.73;;;-3.60;99.90;;;;;;2072887;28;20177;-70
2020/12/11 01:42:52;;;;;;;19.27;9.97;;;-3.60;99.90;;;;;;2072956;28;20181;-69
2020/12/11 01:43:52;;;;;;;19.83;10.70;;;-3.60;99.90;;;;;;2072887;28;20232;-69
2020/12/11 01:44:54;;;;;;;21.73;10.70;;;-3.60;99.90;;;;;;2072935;28;20181;-70
2020/12/11 01:45:55;;;;;;;16.65;9.80;;;-3.60;99.90;;;;;;2072655;28;20653;-69
2020/12/11 01:46:57;;;;;;;18.87;9.83;;;-2.90;99.90;;;;;;2072919;28;20190;-70
2020/12/11 01:47:58;;;;;;;14.55;8.82;;;-3.70;99.90;;;;;;2064258;28;20194;-69
2020/12/11 01:48:59;;;;;;;17.52;9.63;;;-3.70;99.90;;;;;;2064065;28;20202;-69
2020/12/11 01:49:59;;;;;;;16.53;8.93;;;-3.70;99.90;;;;;;2064135;28;20265;-70
2020/12/11 01:51:00;;;;;;;17.53;9.77;;;-3.70;99.90;;;;;;2072515;28;20186;-69
2020/12/11 01:52:01;;;;;;;14.60;8.57;;;-3.70;99.90;;;;;;2072754;28;20189;-69
2020/12/11 01:53:02;;;;;;;18.60;10.43;;;-3.70;99.90;;;;;;2064107;28;20193;-71
2020/12/11 01:54:04;;;;;;;16.40;9.03;;;-3.70;99.90;;;;;;2056142;28;20187;-69
2020/12/11 01:55:05;;;;;;;17.73;9.88;;;-3.70;99.90;;;;;;2056435;28;20183;-68
2020/12/11 01:56:06;;;;;;;17.10;9.27;;;-3.70;99.90;;;;;;2064244;28;20212;-71
2020/12/11 01:57:16;;;;;;;17.87;9.83;;;-3.70;99.90;;;;;;2072931;28;20191;-68
2020/12/11 01:58:24;;;;;;;16.60;8.90;;;-3.70;99.90;;;;;;2064254;28;20216;-69
2020/12/11 01:59:43;;;;;;;17.00;9.27;;;-3.70;99.90;;;;;;2056988;28;20601;-68
2020/12/11 02:00:46;;;;;;;18.60;9.85;;;-3.70;99.90;;;;;;2058581;28;20257;-69
2020/12/11 02:01:48;;;;;;;17.13;9.60;;;-3.70;99.90;;;;;;2064392;28;20685;-68
2020/12/11 02:02:56;;;;;;;20.88;10.10;;;-3.70;99.90;;;;;;2064078;28;20171;-69
2020/12/11 02:03:56;;;;;;;17.60;9.52;;;-3.70;99.90;;;;;;2057096;28;20748;-69
2020/12/11 02:04:57;;;;;;;17.73;9.93;;;-3.60;99.90;;;;;;2064360;28;20178;-68
2020/12/11 02:05:58;;;;;;;18.03;9.63;;;-3.80;99.90;;;;;;2072999;28;20211;-68
2020/12/11 02:06:58;;;;;;;16.03;9.63;;;-3.80;99.90;;;;;;2073545;28;20184;-69
2020/12/11 02:07:59;;;;;;;16.40;9.90;;;-3.80;99.90;;;;;;2074371;28;20189;-69
2020/12/11 02:09:01;;;;;;;18.23;9.90;;;-3.90;99.90;;;;;;2065792;28;20194;-71
2020/12/11 02:10:02;;;;;;;18.55;10.10;;;-3.90;99.90;;;;;;2065983;28;20256;-72
2020/12/11 02:11:03;;;;;;;19.75;9.95;;;-3.90;99.90;;;;;;2074432;28;20185;-68
2020/12/11 02:12:04;;;;;;;17.40;9.13;;;-3.90;99.90;;;;;;2082122;28;20189;-70
2020/12/11 02:13:09;;;;;;;17.65;9.57;;;-3.90;99.90;;;;;;2073825;28;20190;-69
2020/12/11 02:14:10;;;;;;;19.30;10.90;;;-3.90;99.90;;;;;;2074316;28;20722;-69
2020/12/11 02:15:11;;;;;;;18.17;9.73;;;-3.90;99.90;;;;;;2082690;28;20680;-69
2020/12/11 02:16:12;;;;;;;19.52;10.65;;;-4.00;99.90;;;;;;2073845;28;20470;-69
2020/12/11 02:17:13;;;;;;;19.90;10.57;;;-3.90;99.90;;;;;;2073795;28;20181;-69
2020/12/11 02:18:14;;;;;;;17.50;9.57;;;-4.00;99.90;;;;;;2073843;28;20231;-69
2020/12/11 02:19:15;;;;;;;17.37;9.63;;;-4.00;99.90;;;;;;2073933;28;20712;-69
2020/12/11 02:20:15;;;;;;;15.00;8.60;;;-3.90;99.90;;;;;;2082679;28;20205;-69
2020/12/11 02:21:16;;;;;;;18.53;9.43;;;-3.90;99.90;;;;;;2082489;28;20188;-73
2020/12/11 02:22:17;;;;;;;16.85;9.57;;;-4.00;99.90;;;;;;2073827;28;20190;-69
2020/12/11 02:23:18;;;;;;;18.57;9.53;;;-4.00;99.90;;;;;;2073842;28;20325;-68
2020/12/11 02:24:18;;;;;;;19.13;8.70;;;-4.00;99.90;;;;;;2082515;28;20293;-70
2020/12/11 02:25:19;;;;;;;19.80;9.77;;;-3.90;99.90;;;;;;2082745;28;20256;-69
2020/12/11 02:26:24;;;;;;;21.23;10.23;;;-3.90;99.90;;;;;;2082544;28;20227;-70
2020/12/11 02:27:24;;;;;;;20.25;9.52;;;-3.90;99.90;;;;;;2073879;28;20503;-69
2020/12/11 02:28:35;;;;;;;16.23;9.43;;;-3.90;99.90;;;;;;2073971;28;20611;-68
2020/12/11 02:29:36;;;;;;;18.20;9.13;;;-3.90;99.90;;;;;;2073775;28;20181;-70
2020/12/11 02:30:37;;;;;;;18.60;9.43;;;-3.90;99.90;;;;;;2073687;28;20182;-69
2020/12/11 02:31:38;;;;;;;17.52;9.75;;;-3.90;99.90;;;;;;2073516;28;20210;-69
2020/12/11 02:32:39;;;;;;;18.47;9.80;;;-3.90;99.90;;;;;;2073861;28;20228;-69
2020/12/11 02:33:40;;;;;;;16.47;8.90;;;-4.00;99.90;;;;;;2082577;28;20180;-68
2020/12/11 02:34:42;;;;;;;16.40;8.57;;;-3.90;99.90;;;;;;2082159;28;20212;-68
2020/12/11 02:35:42;;;;;;;18.77;9.45;;;-3.90;99.90;;;;;;2082688;28;20232;-69
2020/12/11 02:36:43;;;;;;;18.40;9.40;;;-3.90;99.90;;;;;;2082399;28;20718;-69
2020/12/11 02:37:44;;;;;;;19.63;9.57;;;-3.90;99.90;;;;;;2082723;28;20204;-70
2020/12/11 02:38:45;;;;;;;18.97;9.77;;;-3.90;99.90;;;;;;2082476;28;20407;-71
2020/12/11 02:39:45;;;;;;;17.47;9.53;;;-3.90;99.90;;;;;;2082331;28;20260;-69
2020/12/11 02:40:53;;;;;;;19.80;10.50;;;-4.00;99.90;;;;;;2082259;28;20197;-68
2020/12/11 02:41:54;;;;;;;19.08;9.93;;;-3.90;99.90;;;;;;2082402;28;20157;-68
2020/12/11 02:42:54;;;;;;;17.43;9.67;;;-3.90;99.90;;;;;;2073725;28;20189;-69
2020/12/11 02:43:55;;;;;;;16.63;8.90;;;-3.90;99.90;;;;;;2073704;28;20185;-70
2020/12/11 02:44:56;;;;;;;17.80;8.40;;;-4.00;99.90;;;;;;2082382;28;20188;-69
2020/12/11 02:45:56;;;;;;;15.23;8.63;;;-4.00;99.90;;;;;;2082281;28;20723;-70
2020/12/11 02:46:57;;;;;;;18.27;10.17;;;-4.00;99.90;;;;;;2073623;28;20181;-70
2020/12/11 02:47:58;;;;;;;18.90;10.37;;;-4.00;99.90;;;;;;2073614;28;20220;-69
2020/12/11 02:48:58;;;;;;;16.13;9.03;;;-4.10;99.90;;;;;;2082431;28;20184;-70
2020/12/11 02:50:01;;;;;;;19.43;9.43;;;-4.10;99.90;;;;;;2073467;28;20560;-70
2020/12/11 02:51:02;;;;;;;17.00;9.13;;;-3.30;99.90;;;;;;2065522;28;20854;-69
2020/12/11 02:52:02;;;;;;;18.03;9.57;;;-4.10;99.90;;;;;;2065506;28;20183;-69
2020/12/11 02:53:03;;;;;;;16.20;8.57;;;-4.10;99.90;;;;;;2073693;28;20209;-69
2020/12/11 02:54:04;;;;;;;16.60;8.83;;;-4.20;99.90;;;;;;2082368;28;20630;-69
2020/12/11 02:55:04;;;;;;;18.13;9.90;;;-4.20;99.90;;;;;;2082429;28;20188;-70
2020/12/11 02:56:05;;;;;;;17.27;9.70;;;-4.20;99.90;;;;;;2081973;28;20343;-70
2020/12/11 02:57:06;;;;;;;15.83;8.47;;;-4.20;99.90;;;;;;2082384;28;20177;-70
2020/12/11 02:58:07;;;;;;;15.17;8.47;;;-4.30;99.90;;;;;;2082684;28;20590;-70
2020/12/11 02:59:07;;;;;;;19.30;10.00;;;-4.30;99.90;;;;;;2082672;28;20283;-71
2020/12/11 03:00:08;;;;;;;18.17;10.23;;;-4.30;99.90;;;;;;2073581;28;20213;-69
2020/12/11 03:01:09;;;;;;;17.60;8.90;;;-4.40;99.90;;;;;;2073604;28;20222;-70
2020/12/11 03:02:09;;;;;;;17.33;9.07;;;-4.40;99.90;;;;;;2082435;28;20173;-69
2020/12/11 03:03:10;;;;;;;18.10;10.00;;;-4.40;99.90;;;;;;2082289;28;20671;-69
2020/12/11 03:04:11;;;;;;;17.10;8.77;;;-4.40;99.90;;;;;;2082070;28;20197;-69
2020/12/11 03:05:11;;;;;;;16.33;8.57;;;-4.40;99.90;;;;;;2082241;28;20197;-68
2020/12/11 03:06:12;;;;;;;18.27;8.97;;;-4.30;99.90;;;;;;2082269;28;20215;-69
2020/12/11 03:07:13;;;;;;;16.13;9.00;;;-4.30;99.90;;;;;;2082180;28;20177;-69
2020/12/11 03:08:13;;;;;;;18.17;10.70;;;-4.40;99.90;;;;;;2082191;28;20181;-68
2020/12/11 03:09:14;;;;;;;20.07;9.17;;;-4.40;99.90;;;;;;2082427;28;20181;-69
2020/12/11 03:10:15;;;;;;;19.93;9.57;;;-4.40;99.90;;;;;;2082213;28;20258;-69
2020/12/11 03:11:15;;;;;;;17.97;9.43;;;-4.40;99.90;;;;;;2082202;28;20624;-69
2020/12/11 03:12:16;;;;;;;19.80;9.80;;;-4.30;99.90;;;;;;2082312;28;20185;-69
2020/12/11 03:13:17;;;;;;;18.67;9.57;;;-4.30;99.90;;;;;;2082212;28;20177;-69
2020/12/11 03:14:17;;;;;;;14.87;8.43;;;-3.50;99.90;;;;;;2082133;28;20767;-68
2020/12/11 03:15:18;;;;;;;17.23;8.80;;;-4.30;99.90;;;;;;2082342;28;20181;-70
2020/12/11 03:16:19;;;;;;;17.17;9.40;;;-4.30;99.90;;;;;;2073390;28;20185;-69
2020/12/11 03:17:20;;;;;;;18.67;9.65;;;-4.30;99.90;;;;;;2073260;28;20603;-69
2020/12/11 03:18:21;;;;;;;19.13;9.17;;;-4.30;99.90;;;;;;2072859;28;20252;-70
2020/12/11 03:19:22;;;;;;;22.38;10.60;;;-4.20;99.90;;;;;;2065015;28;20194;-68
2020/12/11 03:20:22;;;;;;;20.17;10.07;;;-4.20;99.90;;;;;;2073477;28;20236;-68
2020/12/11 03:21:23;;;;;;;20.50;10.33;;;-4.10;99.90;;;;;;2081836;28;20177;-68
2020/12/11 03:22:24;;;;;;;22.57;10.90;;;-4.20;99.90;;;;;;2082179;28;20181;-68
2020/12/11 03:23:24;;;;;;;21.33;10.47;;;-4.10;99.90;;;;;;2082033;28;20552;-69
2020/12/11 03:24:25;;;;;;;23.03;10.73;;;-4.10;99.90;;;;;;2082280;28;20197;-69
2020/12/11 03:25:26;;;;;;;21.57;10.33;;;-4.10;99.90;;;;;;2082097;28;20173;-69
2020/12/11 03:26:27;;;;;;;20.98;9.93;;;-4.00;99.90;;;;;;2073439;28;20268;-70
2020/12/11 03:27:27;;;;;;;20.23;9.37;;;-4.10;99.90;;;;;;2073348;28;20228;-68
2020/12/11 03:28:28;;;;;;;22.77;10.13;;;-4.00;99.90;;;;;;2082128;28;20189;-69
2020/12/11 03:29:29;;;;;;;19.97;9.63;;;-4.10;99.90;;;;;;2082031;28;20169;-70
2020/12/11 03:30:30;;;;;;;18.17;9.20;;;-4.10;99.90;;;;;;2082175;28;20230;-69
2020/12/11 03:31:30;;;;;;;19.13;9.82;;;-4.10;99.90;;;;;;2081912;28;20199;-70
2020/12/11 03:32:31;;;;;;;17.73;8.87;;;-4.10;99.90;;;;;;2082084;28;20181;-69
2020/12/11 03:33:32;;;;;;;18.53;9.30;;;-4.00;99.90;;;;;;2082135;28;20184;-69
2020/12/11 03:34:32;;;;;;;20.43;9.97;;;-4.00;99.90;;;;;;2081835;28;20205;-70
2020/12/11 03:35:36;;;;;;;20.57;9.93;;;-4.00;99.90;;;;;;2082008;28;20747;-69
2020/12/11 03:36:37;;;;;;;18.98;9.93;;;-4.00;99.90;;;;;;2082173;28;20173;-70
2020/12/11 03:37:37;;;;;;;19.53;8.73;;;-4.00;99.90;;;;;;2082002;28;20185;-69
2020/12/11 03:38:38;;;;;;;18.80;9.00;;;-4.00;99.90;;;;;;2073228;28;20817;-69
2020/12/11 03:39:39;;;;;;;21.37;10.17;;;-4.00;99.90;;;;;;2073326;28;20182;-69
2020/12/11 03:40:40;;;;;;;20.93;9.73;;;-4.00;99.90;;;;;;2082130;28;20185;-69
2020/12/11 03:41:40;;;;;;;18.43;8.83;;;-4.00;99.90;;;;;;2081917;28;20769;-69
2020/12/11 03:42:41;;;;;;;18.77;9.93;;;-4.00;99.90;;;;;;2082145;28;20269;-69
2020/12/11 03:43:42;;;;;;;21.00;10.17;;;-4.00;99.90;;;;;;2081951;28;20269;-69
2020/12/11 03:44:43;;;;;;;17.92;8.85;;;-4.00;99.90;;;;;;2073257;28;20197;-71
2020/12/11 03:45:44;;;;;;;18.43;9.80;;;-4.00;99.90;;;;;;2073305;28;20713;-68
2020/12/11 03:46:45;;;;;;;17.88;9.07;;;-4.00;99.90;;;;;;2073514;28;20197;-68
2020/12/11 03:47:46;;;;;;;20.40;10.35;;;-4.10;99.90;;;;;;2082252;28;20239;-68
2020/12/11 03:48:48;;;;;;;18.90;9.37;;;-4.00;99.90;;;;;;2082270;28;20230;-69
2020/12/11 03:49:49;;;;;;;16.52;9.25;;;-4.10;99.90;;;;;;2073321;28;20174;-69
2020/12/11 03:50:50;;;;;;;20.77;9.43;;;-4.00;99.90;;;;;;2073128;28;20178;-68
2020/12/11 03:51:54;;;;;;;18.87;9.00;;;-4.10;99.90;;;;;;2081903;28;20231;-68
2020/12/11 03:52:54;;;;;;;19.15;9.52;;;-4.10;99.90;;;;;;2082149;28;20182;-68
2020/12/11 03:53:55;;;;;;;19.53;10.23;;;-4.10;99.90;;;;;;2076445;28;20225;-71
2020/12/11 03:54:57;;;;;;;21.00;10.03;;;-4.10;99.90;;;;;;2073097;28;20248;-69
2020/12/11 03:55:57;;;;;;;20.13;9.77;;;-4.10;99.90;;;;;;2073043;28;20185;-69
2020/12/11 03:56:58;;;;;;;20.27;9.63;;;-4.10;99.90;;;;;;2073803;28;20194;-68
2020/12/11 03:57:59;;;;;;;21.07;10.70;;;-4.10;99.90;;;;;;2073692;28;20178;-70
2020/12/11 03:58:59;;;;;;;18.47;9.33;;;-4.10;99.90;;;;;;2073826;28;20712;-69
2020/12/11 04:00:00;;;;;;;18.33;8.93;;;-4.10;99.90;;;;;;2073508;28;20609;-68
2020/12/11 04:01:01;;;;;;;21.50;10.13;;;-4.10;99.90;;;;;;2064723;28;20258;-69
2020/12/11 04:02:01;;;;;;;19.23;9.77;;;-4.20;99.90;;;;;;2064968;28;20314;-69
2020/12/11 04:03:02;;;;;;;20.10;10.17;;;-4.20;99.90;;;;;;2065121;28;20179;-68
2020/12/11 04:04:03;;;;;;;20.00;9.60;;;-4.10;99.90;;;;;;2065043;28;20179;-69
2020/12/11 04:05:06;;;;;;;22.33;10.20;;;-4.20;99.90;;;;;;2065082;28;20206;-68
2020/12/11 04:06:16;;;;;;;20.58;9.50;;;-4.10;99.90;;;;;;2068071;28;20186;-68
2020/12/11 04:07:17;;;;;;;18.80;9.02;;;-4.20;99.90;;;;;;2056911;28;20187;-68
2020/12/11 04:08:17;;;;;;;18.33;9.33;;;-4.20;99.90;;;;;;2056873;28;20722;-68
2020/12/11 04:09:18;;;;;;;20.57;9.90;;;-4.20;99.90;;;;;;2065573;28;20225;-69
2020/12/11 04:10:19;;;;;;;20.27;10.23;;;-4.20;99.90;;;;;;2065442;28;20206;-68
2020/12/11 04:11:19;;;;;;;19.60;9.37;;;-3.60;99.90;;;;;;2065635;28;20178;-69
2020/12/11 04:12:20;;;;;;;17.83;9.27;;;-4.20;99.90;;;;;;2065220;28;20273;-69
2020/12/11 04:13:20;;;;;;;16.27;9.33;;;-4.20;99.90;;;;;;2065545;28;20295;-69
2020/12/11 04:14:21;;;;;;;19.50;9.90;;;-4.20;99.90;;;;;;2065421;28;20225;-69
2020/12/11 04:15:22;;;;;;;19.63;10.33;;;-4.20;99.90;;;;;;2065481;28;20213;-69
2020/12/11 04:16:23;;;;;;;19.30;9.70;;;-4.20;99.90;;;;;;2057011;28;20182;-69
2020/12/11 04:17:23;;;;;;;18.87;9.70;;;-4.00;99.90;;;;;;2056885;28;20183;-70
2020/12/11 04:18:24;;;;;;;18.93;9.27;;;-4.20;99.90;;;;;;2065358;28;20677;-70
2020/12/11 04:19:26;;;;;;;18.23;9.13;;;-4.30;99.90;;;;;;2056745;28;20190;-69
2020/12/11 04:20:27;;;;;;;17.88;9.30;;;-4.30;99.90;;;;;;2056915;28;20211;-69
2020/12/11 04:21:27;;;;;;;16.50;9.07;;;-4.30;99.90;;;;;;2065216;28;20190;-69
2020/12/11 04:22:28;;;;;;;20.13;10.60;;;-4.40;99.90;;;;;;2065561;28;20186;-70
2020/12/11 04:23:29;;;;;;;18.27;9.70;;;-4.40;99.90;;;;;;2065261;28;20174;-69
2020/12/11 04:24:30;;;;;;;18.97;9.20;;;-4.40;99.90;;;;;;2065571;28;20209;-68
2020/12/11 04:25:30;;;;;;;18.73;9.07;;;-4.40;99.90;;;;;;2065291;28;20209;-69
2020/12/11 04:26:31;;;;;;;17.33;8.30;;;-4.30;99.90;;;;;;2065433;28;20264;-69
2020/12/11 04:27:31;;;;;;;19.23;9.77;;;-4.40;99.90;;;;;;2065291;28;20182;-69
2020/12/11 04:28:32;;;;;;;20.17;10.00;;;-4.40;99.90;;;;;;2065293;28;20167;-70
2020/12/11 04:29:33;;;;;;;18.27;9.33;;;-4.40;99.90;;;;;;2064487;28;20674;-70
2020/12/11 04:30:34;;;;;;;19.87;8.73;;;-4.40;99.90;;;;;;2065191;28;20417;-69
2020/12/11 04:31:35;;;;;;;18.37;9.30;;;-4.00;99.90;;;;;;2064983;28;20198;-70
2020/12/11 04:32:36;;;;;;;17.02;8.73;;;-4.40;99.90;;;;;;2065387;28;20597;-69
2020/12/11 04:33:37;;;;;;;18.70;9.07;;;-4.40;99.90;;;;;;2065301;28;20240;-68
2020/12/11 04:34:38;;;;;;;17.02;8.82;;;-4.40;99.90;;;;;;2056409;28;20317;-69
2020/12/11 04:35:38;;;;;;;16.20;8.67;;;-4.40;99.90;;;;;;2056642;28;20203;-70
2020/12/11 04:36:39;;;;;;;16.73;9.20;;;-4.40;99.90;;;;;;2065469;28;20193;-69
2020/12/11 04:37:40;;;;;;;18.30;9.20;;;-4.40;99.90;;;;;;2065202;28;20175;-68
2020/12/11 04:38:40;;;;;;;15.87;8.57;;;-4.40;99.90;;;;;;2065468;28;20541;-70
2020/12/11 04:39:42;;;;;;;15.33;8.00;;;-4.40;99.90;;;;;;2065152;28;20537;-69
2020/12/11 04:40:43;;;;;;;14.63;8.07;;;-4.30;99.90;;;;;;2056575;28;20176;-69
2020/12/11 04:41:45;;;;;;;17.75;8.93;;;-4.30;99.90;;;;;;2048231;28;20175;-69
2020/12/11 04:42:47;;;;;;;19.90;9.20;;;-4.30;99.90;;;;;;2048672;28;20185;-69
2020/12/11 04:43:51;;;;;;;16.58;8.65;;;-4.30;99.90;;;;;;2056692;28;20193;-70
2020/12/11 04:44:51;;;;;;;17.35;9.52;;;-4.30;99.90;;;;;;2057036;28;20183;-69
2020/12/11 04:45:54;;;;;;;18.93;9.23;;;-4.30;99.90;;;;;;2065169;28;20175;-69
2020/12/11 04:46:55;;;;;;;17.45;8.45;;;-4.30;99.90;;;;;;2065381;28;20178;-70
2020/12/11 04:47:56;;;;;;;17.27;9.50;;;-4.30;99.90;;;;;;2065227;28;20186;-69
2020/12/11 04:48:57;;;;;;;18.08;8.90;;;-4.30;99.90;;;;;;2056740;28;20175;-69
2020/12/11 04:49:58;;;;;;;17.48;9.43;;;-4.30;99.90;;;;;;2056732;28;20194;-69
2020/12/11 04:51:02;;;;;;;15.65;8.50;;;-4.30;99.90;;;;;;2048432;29;20270;-69
2020/12/11 04:52:05;;;;;;;13.90;8.43;;;-4.30;99.90;;;;;;2049156;28;20287;-69
2020/12/11 04:53:13;;;;;;;16.38;8.52;;;-4.30;99.90;;;;;;2056518;28;20526;-69
2020/12/11 04:54:19;;;;;;;15.95;8.25;;;-4.30;99.90;;;;;;2049473;28;20207;-68
2020/12/11 04:55:20;;;;;;;16.13;8.80;;;-4.30;99.90;;;;;;2057448;28;20175;-68
2020/12/11 04:56:22;;;;;;;19.90;10.57;;;-4.30;99.90;;;;;;2064991;28;20256;-68
2020/12/11 04:57:26;;;;;;;17.73;9.38;;;-4.30;99.90;;;;;;2056594;28;20502;-69
2020/12/11 04:58:29;;;;;;;16.90;8.98;;;-4.30;99.90;;;;;;2056973;28;20230;-69
2020/12/11 04:59:30;;;;;;;15.88;7.93;;;-4.30;99.90;;;;;;2065197;28;20175;-69
2020/12/11 05:00:31;;;;;;;18.33;9.10;;;-4.20;99.90;;;;;;2056254;28;20226;-69
2020/12/11 05:01:33;;;;;;;18.73;9.48;;;-4.20;99.90;;;;;;2048271;28;20242;-69
2020/12/11 05:02:34;;;;;;;19.33;10.40;;;-4.20;99.90;;;;;;2056758;28;20190;-69
2020/12/11 05:03:35;;;;;;;18.00;9.50;;;-4.20;99.90;;;;;;2056535;28;20213;-69
2020/12/11 05:04:38;;;;;;;17.85;9.45;;;-4.10;99.90;;;;;;2056392;28;20206;-69
2020/12/11 05:05:40;;;;;;;14.75;7.85;;;-4.10;99.90;;;;;;2064432;28;20253;-69
2020/12/11 05:06:41;;;;;;;20.48;11.60;;;-4.10;99.90;;;;;;2056265;28;20190;-69
2020/12/11 05:07:42;;;;;;;17.90;8.80;;;-4.10;99.90;;;;;;2056667;28;20554;-70
2020/12/11 05:08:43;;;;;;;19.27;9.23;;;-4.10;99.90;;;;;;2056281;28;20182;-68
2020/12/11 05:09:55;;;;;;;15.73;9.13;;;-4.00;99.90;;;;;;2056625;28;20597;-70
2020/12/11 05:10:55;;;;;;;16.05;8.27;;;-4.00;99.90;;;;;;2064869;28;20804;-69
2020/12/11 05:11:56;;;;;;;17.67;9.30;;;-4.00;99.90;;;;;;2064942;28;20237;-69
2020/12/11 05:12:57;;;;;;;16.13;8.60;;;-3.90;99.90;;;;;;2056477;28;20179;-69